sensor_id;sensor_type;location;lat;lon;timestamp;pressure;altitude;pressure_sealevel;temperature;humidity
73085;BME280;62974;49.460;10.892;2023-07-31T00:00:53;97787.31;;;17.49;69.26
73085;BME280;62974;49.460;10.892;2023-07-31T00:03:21;97777.53;;;17.48;69.52
73085;BME280;62974;49.460;10.892;2023-07-31T00:05:49;97776.31;;;17.55;69.63
73085;BME280;62974;49.460;10.892;2023-07-31T00:08:16;97769.44;;;17.36;69.63
73085;BME280;62974;49.460;10.892;2023-07-31T00:10:45;97766.59;;;17.43;69.83
73085;BME280;62974;49.460;10.892;2023-07-31T00:13:13;97769.97;;;17.50;69.86
73085;BME280;62974;49.460;10.892;2023-07-31T00:15:40;97758.34;;;17.37;69.89
73085;BME280;62974;49.460;10.892;2023-07-31T00:18:08;97759.09;;;17.33;70.35
73085;BME280;62974;49.460;10.892;2023-07-31T00:20:35;97752.03;;;17.49;69.66
73085;BME280;62974;49.460;10.892;2023-07-31T00:23:03;97754.41;;;17.45;69.21
73085;BME280;62974;49.460;10.892;2023-07-31T00:25:31;97751.19;;;17.48;69.73
73085;BME280;62974;49.460;10.892;2023-07-31T00:28:00;97760.97;;;17.32;70.38
73085;BME280;62974;49.460;10.892;2023-07-31T00:30:27;97765.66;;;17.37;70.26
73085;BME280;62974;49.460;10.892;2023-07-31T00:32:55;97761.38;;;17.24;70.35
73085;BME280;62974;49.460;10.892;2023-07-31T00:35:22;97765.50;;;17.27;71.03
73085;BME280;62974;49.460;10.892;2023-07-31T00:37:50;97758.50;;;17.31;70.58
73085;BME280;62974;49.460;10.892;2023-07-31T00:40:17;97747.56;;;17.26;70.72
73085;BME280;62974;49.460;10.892;2023-07-31T00:42:45;97755.31;;;17.34;70.64
73085;BME280;62974;49.460;10.892;2023-07-31T00:45:14;97761.22;;;17.31;70.60
73085;BME280;62974;49.460;10.892;2023-07-31T00:47:41;97753.16;;;17.19;71.71
73085;BME280;62974;49.460;10.892;2023-07-31T00:50:10;97747.91;;;17.29;71.19
73085;BME280;62974;49.460;10.892;2023-07-31T00:52:37;97751.66;;;17.28;71.29
73085;BME280;62974;49.460;10.892;2023-07-31T00:55:05;97753.56;;;17.28;71.20
73085;BME280;62974;49.460;10.892;2023-07-31T00:57:34;97762.19;;;17.25;71.06
73085;BME280;62974;49.460;10.892;2023-07-31T01:00:04;97765.69;;;17.09;71.00
73085;BME280;62974;49.460;10.892;2023-07-31T01:02:33;97754.31;;;17.23;71.63
73085;BME280;62974;49.460;10.892;2023-07-31T01:05:03;97751.88;;;17.10;71.94
73085;BME280;62974;49.460;10.892;2023-07-31T01:07:35;97741.53;;;17.24;71.58
73085;BME280;62974;49.460;10.892;2023-07-31T01:10:08;97732.75;;;17.33;70.83
73085;BME280;62974;49.460;10.892;2023-07-31T01:12:38;97743.84;;;17.15;71.62
73085;BME280;62974;49.460;10.892;2023-07-31T01:15:07;97747.53;;;17.09;72.36
73085;BME280;62974;49.460;10.892;2023-07-31T01:17:38;97742.69;;;17.28;71.27
73085;BME280;62974;49.460;10.892;2023-07-31T01:20:11;97733.16;;;17.25;70.79
73085;BME280;62974;49.460;10.892;2023-07-31T01:23:04;97742.16;;;16.98;72.33
73085;BME280;62974;49.460;10.892;2023-07-31T01:25:55;97735.72;;;17.15;71.14
73085;BME280;62974;49.460;10.892;2023-07-31T01:28:28;97734.84;;;16.98;72.59
73085;BME280;62974;49.460;10.892;2023-07-31T01:30:58;97728.53;;;17.09;72.30
73085;BME280;62974;49.460;10.892;2023-07-31T01:33:28;97733.88;;;17.21;71.76
73085;BME280;62974;49.460;10.892;2023-07-31T01:35:56;97732.56;;;17.07;72.12
73085;BME280;62974;49.460;10.892;2023-07-31T01:38:24;97735.38;;;16.83;72.33
73085;BME280;62974;49.460;10.892;2023-07-31T01:40:53;97733.06;;;16.92;73.39
73085;BME280;62974;49.460;10.892;2023-07-31T01:43:21;97738.44;;;16.87;73.36
73085;BME280;62974;49.460;10.892;2023-07-31T01:45:49;97719.88;;;17.12;72.62
73085;BME280;62974;49.460;10.892;2023-07-31T01:48:17;97720.66;;;17.08;72.57
73085;BME280;62974;49.460;10.892;2023-07-31T01:50:44;97718.31;;;17.00;72.81
73085;BME280;62974;49.460;10.892;2023-07-31T01:53:12;97715.50;;;17.23;71.97
73085;BME280;62974;49.460;10.892;2023-07-31T01:55:40;97718.78;;;16.97;73.28
73085;BME280;62974;49.460;10.892;2023-07-31T01:58:09;97713.22;;;17.03;72.61
73085;BME280;62974;49.460;10.892;2023-07-31T02:00:38;97713.00;;;17.21;72.12
73085;BME280;62974;49.460;10.892;2023-07-31T02:03:05;97703.47;;;17.19;72.61
73085;BME280;62974;49.460;10.892;2023-07-31T02:05:33;97697.13;;;17.13;72.81
73085;BME280;62974;49.460;10.892;2023-07-31T02:08:01;97694.84;;;17.22;72.42
73085;BME280;62974;49.460;10.892;2023-07-31T02:10:31;97694.34;;;17.25;72.15
73085;BME280;62974;49.460;10.892;2023-07-31T02:12:59;97689.63;;;17.04;73.26
73085;BME280;62974;49.460;10.892;2023-07-31T02:15:28;97682.72;;;17.13;72.86
73085;BME280;62974;49.460;10.892;2023-07-31T02:17:55;97674.44;;;17.19;72.34
73085;BME280;62974;49.460;10.892;2023-07-31T02:20:23;97680.59;;;17.15;72.39
73085;BME280;62974;49.460;10.892;2023-07-31T02:22:51;97673.84;;;17.17;72.57
73085;BME280;62974;49.460;10.892;2023-07-31T02:25:20;97675.09;;;17.10;72.90
73085;BME280;62974;49.460;10.892;2023-07-31T02:27:48;97672.88;;;17.07;72.68
73085;BME280;62974;49.460;10.892;2023-07-31T02:30:15;97672.13;;;17.11;72.46
73085;BME280;62974;49.460;10.892;2023-07-31T02:32:44;97673.19;;;17.10;72.75
73085;BME280;62974;49.460;10.892;2023-07-31T02:35:12;97674.16;;;17.04;72.56
73085;BME280;62974;49.460;10.892;2023-07-31T02:37:44;97682.16;;;17.11;72.28
73085;BME280;62974;49.460;10.892;2023-07-31T02:40:12;97675.50;;;17.18;72.04
73085;BME280;62974;49.460;10.892;2023-07-31T02:42:40;97676.50;;;16.56;74.25
73085;BME280;62974;49.460;10.892;2023-07-31T02:45:08;97674.63;;;16.84;74.09
73085;BME280;62974;49.460;10.892;2023-07-31T02:47:36;97677.88;;;16.98;73.15
73085;BME280;62974;49.460;10.892;2023-07-31T02:50:06;97677.88;;;16.98;73.49
73085;BME280;62974;49.460;10.892;2023-07-31T02:52:34;97674.22;;;16.92;73.41
73085;BME280;62974;49.460;10.892;2023-07-31T02:55:01;97666.91;;;16.93;72.80
73085;BME280;62974;49.460;10.892;2023-07-31T02:57:29;97671.94;;;17.01;73.25
73085;BME280;62974;49.460;10.892;2023-07-31T02:59:56;97668.50;;;17.06;72.87
73085;BME280;62974;49.460;10.892;2023-07-31T03:02:24;97666.72;;;17.11;72.55
73085;BME280;62974;49.460;10.892;2023-07-31T03:04:52;97665.19;;;16.87;73.95
73085;BME280;62974;49.460;10.892;2023-07-31T03:07:21;97664.41;;;17.03;72.95
73085;BME280;62974;49.460;10.892;2023-07-31T03:09:48;97661.25;;;16.95;73.35
73085;BME280;62974;49.460;10.892;2023-07-31T03:12:16;97661.25;;;16.95;73.21
73085;BME280;62974;49.460;10.892;2023-07-31T03:14:44;97656.94;;;16.82;73.34
73085;BME280;62974;49.460;10.892;2023-07-31T03:17:14;97662.47;;;16.87;73.68
73085;BME280;62974;49.460;10.892;2023-07-31T03:19:42;97663.13;;;16.94;73.44
73085;BME280;62974;49.460;10.892;2023-07-31T03:22:10;97660.16;;;16.79;74.19
73085;BME280;62974;49.460;10.892;2023-07-31T03:24:41;97661.16;;;16.89;73.37
73085;BME280;62974;49.460;10.892;2023-07-31T03:27:09;97660.44;;;16.66;74.36
73085;BME280;62974;49.460;10.892;2023-07-31T03:29:36;97658.28;;;16.96;73.53
73085;BME280;62974;49.460;10.892;2023-07-31T03:32:05;97660.09;;;16.90;73.37
73085;BME280;62974;49.460;10.892;2023-07-31T03:34:32;97660.66;;;16.76;74.49
73085;BME280;62974;49.460;10.892;2023-07-31T03:37:00;97654.41;;;16.92;73.36
73085;BME280;62974;49.460;10.892;2023-07-31T03:39:27;97655.81;;;16.95;73.21
73085;BME280;62974;49.460;10.892;2023-07-31T03:41:56;97660.06;;;16.74;73.92
73085;BME280;62974;49.460;10.892;2023-07-31T03:44:24;97660.53;;;16.71;74.41
73085;BME280;62974;49.460;10.892;2023-07-31T03:46:51;97662.72;;;16.85;73.51
73085;BME280;62974;49.460;10.892;2023-07-31T03:49:19;97656.28;;;16.75;74.14
73085;BME280;62974;49.460;10.892;2023-07-31T03:51:47;97654.47;;;16.80;73.97
73085;BME280;62974;49.460;10.892;2023-07-31T03:54:14;97650.19;;;16.84;73.21
73085;BME280;62974;49.460;10.892;2023-07-31T03:56:45;97663.03;;;16.89;73.65
73085;BME280;62974;49.460;10.892;2023-07-31T03:59:14;97663.31;;;16.87;73.46
73085;BME280;62974;49.460;10.892;2023-07-31T04:01:41;97661.31;;;16.83;73.53
73085;BME280;62974;49.460;10.892;2023-07-31T04:04:09;97661.53;;;16.81;73.63
73085;BME280;62974;49.460;10.892;2023-07-31T04:06:37;97660.31;;;16.89;73.45
73085;BME280;62974;49.460;10.892;2023-07-31T04:09:05;97657.38;;;16.90;73.30
73085;BME280;62974;49.460;10.892;2023-07-31T04:11:33;97651.75;;;16.64;74.16
73085;BME280;62974;49.460;10.892;2023-07-31T04:14:01;97651.44;;;16.77;73.48
73085;BME280;62974;49.460;10.892;2023-07-31T04:16:29;97662.72;;;16.85;73.55
73085;BME280;62974;49.460;10.892;2023-07-31T04:18:57;97658.94;;;16.86;73.33
73085;BME280;62974;49.460;10.892;2023-07-31T04:21:25;97666.88;;;16.76;74.32
73085;BME280;62974;49.460;10.892;2023-07-31T04:23:52;97662.16;;;16.83;73.89
73085;BME280;62974;49.460;10.892;2023-07-31T04:26:22;97663.94;;;16.78;74.08
73085;BME280;62974;49.460;10.892;2023-07-31T04:28:50;97657.88;;;16.87;73.55
73085;BME280;62974;49.460;10.892;2023-07-31T04:31:17;97661.16;;;16.89;73.54
73085;BME280;62974;49.460;10.892;2023-07-31T04:33:46;97666.81;;;16.88;73.54
73085;BME280;62974;49.460;10.892;2023-07-31T04:36:14;97666.25;;;16.86;73.36
73085;BME280;62974;49.460;10.892;2023-07-31T04:38:41;97653.25;;;16.88;73.44
73085;BME280;62974;49.460;10.892;2023-07-31T04:41:09;97650.81;;;16.58;74.36
73085;BME280;62974;49.460;10.892;2023-07-31T04:43:36;97646.53;;;16.90;73.46
73085;BME280;62974;49.460;10.892;2023-07-31T04:46:05;97645.28;;;16.81;73.75
73085;BME280;62974;49.460;10.892;2023-07-31T04:48:33;97639.19;;;16.74;73.96
73085;BME280;62974;49.460;10.892;2023-07-31T04:51:01;97640.28;;;16.90;73.54
73085;BME280;62974;49.460;10.892;2023-07-31T04:53:29;97633.59;;;16.81;74.43
73085;BME280;62974;49.460;10.892;2023-07-31T04:55:57;97641.41;;;16.77;74.44
73085;BME280;62974;49.460;10.892;2023-07-31T04:58:24;97629.94;;;16.87;73.93
73085;BME280;62974;49.460;10.892;2023-07-31T05:00:54;97633.69;;;16.86;74.46
73085;BME280;62974;49.460;10.892;2023-07-31T05:03:22;97630.19;;;17.02;72.97
73085;BME280;62974;49.460;10.892;2023-07-31T05:05:50;97636.50;;;16.91;74.00
73085;BME280;62974;49.460;10.892;2023-07-31T05:08:19;97629.34;;;16.57;75.24
73085;BME280;62974;49.460;10.892;2023-07-31T05:10:47;97632.38;;;16.72;75.36
73085;BME280;62974;49.460;10.892;2023-07-31T05:13:15;97622.69;;;16.92;74.04
73085;BME280;62974;49.460;10.892;2023-07-31T05:15:42;97616.38;;;17.04;73.51
73085;BME280;62974;49.460;10.892;2023-07-31T05:18:09;97623.50;;;16.93;74.04
73085;BME280;62974;49.460;10.892;2023-07-31T05:20:37;97624.84;;;16.90;74.24
73085;BME280;62974;49.460;10.892;2023-07-31T05:23:06;97640.50;;;16.72;75.97
73085;BME280;62974;49.460;10.892;2023-07-31T05:25:36;97649.66;;;16.99;74.62
73085;BME280;62974;49.460;10.892;2023-07-31T05:28:04;97644.13;;;16.77;75.47
73085;BME280;62974;49.460;10.892;2023-07-31T05:30:32;97646.09;;;16.82;74.96
73085;BME280;62974;49.460;10.892;2023-07-31T05:32:59;97650.81;;;16.86;74.98
73085;BME280;62974;49.460;10.892;2023-07-31T05:35:27;97654.78;;;16.96;74.31
73085;BME280;62974;49.460;10.892;2023-07-31T05:37:54;97654.59;;;17.02;74.67
73085;BME280;62974;49.460;10.892;2023-07-31T05:40:22;97648.69;;;17.05;74.84
73085;BME280;62974;49.460;10.892;2023-07-31T05:42:51;97659.59;;;16.94;75.83
73085;BME280;62974;49.460;10.892;2023-07-31T05:45:19;97657.72;;;16.94;75.75
73085;BME280;62974;49.460;10.892;2023-07-31T05:47:46;97650.25;;;16.73;76.63
73085;BME280;62974;49.460;10.892;2023-07-31T05:50:14;97635.13;;;17.05;75.89
73085;BME280;62974;49.460;10.892;2023-07-31T05:52:41;97624.50;;;17.20;74.23
73085;BME280;62974;49.460;10.892;2023-07-31T05:55:09;97638.63;;;16.89;78.80
73085;BME280;62974;49.460;10.892;2023-07-31T05:57:37;97627.97;;;16.99;77.57
73085;BME280;62974;49.460;10.892;2023-07-31T06:00:07;97619.56;;;17.17;75.87
73085;BME280;62974;49.460;10.892;2023-07-31T06:02:35;97618.84;;;17.22;75.29
73085;BME280;62974;49.460;10.892;2023-07-31T06:05:03;97619.25;;;17.14;75.16
73085;BME280;62974;49.460;10.892;2023-07-31T06:07:32;97626.38;;;17.20;75.61
73085;BME280;62974;49.460;10.892;2023-07-31T06:10:00;97631.81;;;17.20;76.15
73085;BME280;62974;49.460;10.892;2023-07-31T06:12:31;97645.38;;;17.20;76.67
73085;BME280;62974;49.460;10.892;2023-07-31T06:14:58;97631.34;;;17.23;75.75
73085;BME280;62974;49.460;10.892;2023-07-31T06:17:27;97630.84;;;17.26;76.18
73085;BME280;62974;49.460;10.892;2023-07-31T06:19:56;97631.16;;;17.46;74.83
73085;BME280;62974;49.460;10.892;2023-07-31T06:22:24;97634.84;;;17.57;73.98
73085;BME280;62974;49.460;10.892;2023-07-31T06:24:52;97631.25;;;17.51;74.44
73085;BME280;62974;49.460;10.892;2023-07-31T06:27:19;97634.63;;;17.42;74.83
73085;BME280;62974;49.460;10.892;2023-07-31T06:29:47;97631.50;;;17.50;73.10
73085;BME280;62974;49.460;10.892;2023-07-31T06:32:15;97627.31;;;17.59;73.60
73085;BME280;62974;49.460;10.892;2023-07-31T06:34:44;97635.88;;;17.67;74.23
73085;BME280;62974;49.460;10.892;2023-07-31T06:37:11;97620.94;;;17.53;72.98
73085;BME280;62974;49.460;10.892;2023-07-31T06:39:39;97622.94;;;17.58;73.61
73085;BME280;62974;49.460;10.892;2023-07-31T06:42:07;97618.06;;;17.76;73.57
73085;BME280;62974;49.460;10.892;2023-07-31T06:44:35;97618.06;;;17.76;72.44
73085;BME280;62974;49.460;10.892;2023-07-31T06:47:02;97623.06;;;17.84;72.04
73085;BME280;62974;49.460;10.892;2023-07-31T06:49:30;97615.72;;;17.85;72.08
73085;BME280;62974;49.460;10.892;2023-07-31T06:51:59;97623.25;;;17.78;72.28
73085;BME280;62974;49.460;10.892;2023-07-31T06:54:28;97621.66;;;17.82;72.91
73085;BME280;62974;49.460;10.892;2023-07-31T06:56:56;97619.97;;;17.98;72.98
73085;BME280;62974;49.460;10.892;2023-07-31T06:59:23;97620.06;;;18.03;71.50
73085;BME280;62974;49.460;10.892;2023-07-31T07:01:51;97626.03;;;18.05;72.69
73085;BME280;62974;49.460;10.892;2023-07-31T07:04:18;97624.03;;;18.17;71.77
73085;BME280;62974;49.460;10.892;2023-07-31T07:06:46;97620.09;;;18.08;71.30
73085;BME280;62974;49.460;10.892;2023-07-31T07:09:15;97624.22;;;18.10;71.35
73085;BME280;62974;49.460;10.892;2023-07-31T07:11:42;97615.56;;;18.13;71.67
73085;BME280;62974;49.460;10.892;2023-07-31T07:14:10;97619.34;;;18.12;70.14
73085;BME280;62974;49.460;10.892;2023-07-31T07:16:38;97618.38;;;18.23;71.33
73085;BME280;62974;49.460;10.892;2023-07-31T07:19:08;97628.47;;;18.23;70.26
73085;BME280;62974;49.460;10.892;2023-07-31T07:21:35;97624.91;;;18.22;70.83
73085;BME280;62974;49.460;10.892;2023-07-31T07:24:03;97628.63;;;18.16;70.64
73085;BME280;62974;49.460;10.892;2023-07-31T07:26:32;97634.66;;;18.18;70.78
73085;BME280;62974;49.460;10.892;2023-07-31T07:29:00;97630.91;;;18.24;71.14
73085;BME280;62974;49.460;10.892;2023-07-31T07:31:28;97628.69;;;18.21;70.59
73085;BME280;62974;49.460;10.892;2023-07-31T07:33:56;97624.97;;;18.27;69.81
73085;BME280;62974;49.460;10.892;2023-07-31T07:36:24;97630.91;;;18.24;70.03
73085;BME280;62974;49.460;10.892;2023-07-31T07:38:52;97639.50;;;18.16;70.27
73085;BME280;62974;49.460;10.892;2023-07-31T07:41:25;97641.63;;;18.31;70.50
73085;BME280;62974;49.460;10.892;2023-07-31T07:43:53;97627.88;;;18.21;70.17
73085;BME280;62974;49.460;10.892;2023-07-31T07:46:24;97633.63;;;18.24;70.23
73085;BME280;62974;49.460;10.892;2023-07-31T07:48:51;97627.38;;;18.24;69.98
73085;BME280;62974;49.460;10.892;2023-07-31T07:51:19;97636.94;;;18.26;70.99
73085;BME280;62974;49.460;10.892;2023-07-31T07:53:47;97639.81;;;18.42;71.63
73085;BME280;62974;49.460;10.892;2023-07-31T07:56:14;97621.75;;;18.52;70.66
73085;BME280;62974;49.460;10.892;2023-07-31T07:58:42;97625.50;;;18.51;71.55
73085;BME280;62974;49.460;10.892;2023-07-31T08:01:14;97617.31;;;18.46;71.28
73085;BME280;62974;49.460;10.892;2023-07-31T08:03:41;97624.94;;;18.49;71.17
73085;BME280;62974;49.460;10.892;2023-07-31T08:06:09;97623.81;;;18.67;70.72
73085;BME280;62974;49.460;10.892;2023-07-31T08:08:37;97624.63;;;18.94;71.31
73085;BME280;62974;49.460;10.892;2023-07-31T08:11:05;97614.41;;;19.06;69.92
73085;BME280;62974;49.460;10.892;2023-07-31T08:13:33;97618.06;;;19.22;69.48
73085;BME280;62974;49.460;10.892;2023-07-31T08:16:00;97614.72;;;19.15;67.71
73085;BME280;62974;49.460;10.892;2023-07-31T08:18:30;97614.34;;;19.01;68.93
73085;BME280;62974;49.460;10.892;2023-07-31T08:20:58;97618.72;;;19.34;68.34
73085;BME280;62974;49.460;10.892;2023-07-31T08:23:26;97618.91;;;19.28;68.55
73085;BME280;62974;49.460;10.892;2023-07-31T08:25:53;97611.88;;;19.32;67.89
73085;BME280;62974;49.460;10.892;2023-07-31T08:28:21;97600.09;;;19.21;67.64
73085;BME280;62974;49.460;10.892;2023-07-31T08:30:48;97586.72;;;19.19;68.55
73085;BME280;62974;49.460;10.892;2023-07-31T08:33:16;97591.34;;;19.19;68.98
73085;BME280;62974;49.460;10.892;2023-07-31T08:35:45;97581.53;;;19.50;67.14
73085;BME280;62974;49.460;10.892;2023-07-31T08:38:13;97573.78;;;19.79;67.87
73085;BME280;62974;49.460;10.892;2023-07-31T08:40:40;97569.72;;;19.81;67.53
73085;BME280;62974;49.460;10.892;2023-07-31T08:43:08;97569.53;;;20.03;67.03
73085;BME280;62974;49.460;10.892;2023-07-31T08:45:36;97564.84;;;19.88;67.09
73085;BME280;62974;49.460;10.892;2023-07-31T08:48:04;97558.31;;;19.89;65.83
73085;BME280;62974;49.460;10.892;2023-07-31T08:50:32;97571.97;;;19.94;67.33
73085;BME280;62974;49.460;10.892;2023-07-31T08:53:01;97574.41;;;19.96;67.95
73085;BME280;62974;49.460;10.892;2023-07-31T08:55:29;97573.13;;;20.13;65.50
73085;BME280;62974;49.460;10.892;2023-07-31T08:57:58;97555.97;;;20.23;64.83
73085;BME280;62974;49.460;10.892;2023-07-31T09:00:26;97555.50;;;20.31;63.57
73085;BME280;62974;49.460;10.892;2023-07-31T09:02:57;97564.53;;;20.42;65.46
73085;BME280;62974;49.460;10.892;2023-07-31T09:05:29;97564.00;;;20.45;64.66
73085;BME280;62974;49.460;10.892;2023-07-31T09:07:57;97558.84;;;20.69;64.94
73085;BME280;62974;49.460;10.892;2023-07-31T09:10:26;97549.31;;;21.01;65.04
73085;BME280;62974;49.460;10.892;2023-07-31T09:12:54;97556.13;;;20.84;64.98
73085;BME280;62974;49.460;10.892;2023-07-31T09:15:23;97552.59;;;20.88;64.75
73085;BME280;62974;49.460;10.892;2023-07-31T09:18:04;97553.66;;;20.87;63.52
73085;BME280;62974;49.460;10.892;2023-07-31T09:20:32;97559.97;;;20.78;64.47
73085;BME280;62974;49.460;10.892;2023-07-31T09:23:06;97556.66;;;20.66;64.08
73085;BME280;62974;49.460;10.892;2023-07-31T09:25:36;97553.66;;;20.57;63.99
73085;BME280;62974;49.460;10.892;2023-07-31T09:28:06;97552.28;;;20.75;63.21
73085;BME280;62974;49.460;10.892;2023-07-31T09:30:45;97555.31;;;20.88;64.24
73085;BME280;62974;49.460;10.892;2023-07-31T09:33:13;97546.03;;;20.79;62.40
73085;BME280;62974;49.460;10.892;2023-07-31T09:35:41;97551.47;;;20.59;63.98
73085;BME280;62974;49.460;10.892;2023-07-31T09:38:10;97548.75;;;20.64;64.29
73085;BME280;62974;49.460;10.892;2023-07-31T09:40:40;97554.72;;;20.51;63.57
73085;BME280;62974;49.460;10.892;2023-07-31T09:43:10;97544.34;;;20.38;64.16
73085;BME280;62974;49.460;10.892;2023-07-31T09:45:39;97549.00;;;20.62;64.91
73085;BME280;62974;49.460;10.892;2023-07-31T09:48:08;97538.09;;;20.57;63.63
73085;BME280;62974;49.460;10.892;2023-07-31T09:50:37;97539.97;;;20.47;65.22
73085;BME280;62974;49.460;10.892;2023-07-31T09:53:06;97541.31;;;20.39;65.89
73085;BME280;62974;49.460;10.892;2023-07-31T09:55:34;97538.81;;;20.28;66.15
73085;BME280;62974;49.460;10.892;2023-07-31T09:58:05;97543.50;;;20.32;65.53
73085;BME280;62974;49.460;10.892;2023-07-31T10:00:33;97523.09;;;20.75;64.35
73085;BME280;62974;49.460;10.892;2023-07-31T10:03:04;97520.06;;;20.67;64.80
73085;BME280;62974;49.460;10.892;2023-07-31T10:05:34;97523.91;;;20.71;63.04
73085;BME280;62974;49.460;10.892;2023-07-31T10:08:03;97520.88;;;20.47;64.38
73085;BME280;62974;49.460;10.892;2023-07-31T10:10:31;97526.34;;;20.47;64.22
73085;BME280;62974;49.460;10.892;2023-07-31T10:13:00;97507.53;;;20.45;63.71
73085;BME280;62974;49.460;10.892;2023-07-31T10:15:30;97506.44;;;20.51;63.92
73085;BME280;62974;49.460;10.892;2023-07-31T10:17:59;97505.34;;;20.68;65.04
73085;BME280;62974;49.460;10.892;2023-07-31T10:20:26;97491.19;;;20.66;61.58
73085;BME280;62974;49.460;10.892;2023-07-31T10:22:56;97493.59;;;20.67;62.93
73085;BME280;62974;49.460;10.892;2023-07-31T10:25:26;97482.44;;;20.94;61.22
73085;BME280;62974;49.460;10.892;2023-07-31T10:27:54;97476.16;;;20.68;60.63
73085;BME280;62974;49.460;10.892;2023-07-31T10:30:32;97476.97;;;20.89;62.53
73085;BME280;62974;49.460;10.892;2023-07-31T10:33:02;97481.31;;;21.20;63.10
73085;BME280;62974;49.460;10.892;2023-07-31T10:35:31;97467.94;;;21.24;60.35
73085;BME280;62974;49.460;10.892;2023-07-31T10:38:09;97459.63;;;21.59;60.67
73085;BME280;62974;49.460;10.892;2023-07-31T10:40:38;97448.34;;;21.76;58.45
73085;BME280;62974;49.460;10.892;2023-07-31T10:43:06;97453.66;;;21.42;60.93
73085;BME280;62974;49.460;10.892;2023-07-31T10:45:37;97447.72;;;21.25;61.13
73085;BME280;62974;49.460;10.892;2023-07-31T10:48:07;97460.03;;;21.12;60.10
73085;BME280;62974;49.460;10.892;2023-07-31T10:50:37;97445.56;;;20.96;60.70
73085;BME280;62974;49.460;10.892;2023-07-31T10:53:05;97446.63;;;21.10;60.95
73085;BME280;62974;49.460;10.892;2023-07-31T10:55:39;97435.03;;;21.59;59.09
73085;BME280;62974;49.460;10.892;2023-07-31T10:58:07;97443.22;;;21.64;60.25
73085;BME280;62974;49.460;10.892;2023-07-31T11:00:38;97432.66;;;21.32;60.82
73085;BME280;62974;49.460;10.892;2023-07-31T11:03:07;97434.81;;;21.40;61.72
73085;BME280;62974;49.460;10.892;2023-07-31T11:05:48;97434.59;;;21.27;61.67
73085;BME280;62974;49.460;10.892;2023-07-31T11:08:18;97428.06;;;21.07;60.60
73085;BME280;62974;49.460;10.892;2023-07-31T11:10:48;97433.00;;;21.05;59.83
73085;BME280;62974;49.460;10.892;2023-07-31T11:13:15;97437.91;;;21.03;60.23
73085;BME280;62974;49.460;10.892;2023-07-31T11:15:44;97433.56;;;20.97;59.91
73085;BME280;62974;49.460;10.892;2023-07-31T11:18:12;97432.44;;;20.98;60.20
73085;BME280;62974;49.460;10.892;2023-07-31T11:20:40;97426.47;;;20.81;60.11
73085;BME280;62974;49.460;10.892;2023-07-31T11:23:08;97431.66;;;20.88;61.42
73085;BME280;62974;49.460;10.892;2023-07-31T11:25:37;97433.56;;;20.72;61.06
73085;BME280;62974;49.460;10.892;2023-07-31T11:28:08;97439.84;;;20.62;60.93
73085;BME280;62974;49.460;10.892;2023-07-31T11:30:36;97436.84;;;20.69;59.56
73085;BME280;62974;49.460;10.892;2023-07-31T11:33:06;97433.88;;;20.66;59.91
73085;BME280;62974;49.460;10.892;2023-07-31T11:35:35;97440.13;;;20.76;61.23
73085;BME280;62974;49.460;10.892;2023-07-31T11:38:03;97450.50;;;20.79;61.67
73085;BME280;62974;49.460;10.892;2023-07-31T11:40:31;97447.22;;;20.77;61.57
73085;BME280;62974;49.460;10.892;2023-07-31T11:42:59;97450.75;;;20.93;61.24
73085;BME280;62974;49.460;10.892;2023-07-31T11:45:31;97442.84;;;20.91;60.46
73085;BME280;62974;49.460;10.892;2023-07-31T11:47:59;97442.56;;;20.93;61.13
73085;BME280;62974;49.460;10.892;2023-07-31T11:50:33;97430.00;;;21.12;61.19
73085;BME280;62974;49.460;10.892;2023-07-31T11:53:05;97431.91;;;21.17;60.43
73085;BME280;62974;49.460;10.892;2023-07-31T11:55:34;97425.31;;;21.28;59.87
73085;BME280;62974;49.460;10.892;2023-07-31T11:58:02;97412.41;;;21.38;59.47
73085;BME280;62974;49.460;10.892;2023-07-31T12:00:30;97414.94;;;21.25;60.03
73085;BME280;62974;49.460;10.892;2023-07-31T12:02:58;97419.34;;;21.00;61.38
73085;BME280;62974;49.460;10.892;2023-07-31T12:05:26;97419.63;;;20.89;61.27
73085;BME280;62974;49.460;10.892;2023-07-31T12:07:55;97421.81;;;20.97;60.86
73085;BME280;62974;49.460;10.892;2023-07-31T12:10:27;97425.09;;;20.89;61.16
73085;BME280;62974;49.460;10.892;2023-07-31T12:13:05;97422.06;;;20.95;60.90
73085;BME280;62974;49.460;10.892;2023-07-31T12:15:37;97416.88;;;20.99;61.27
73085;BME280;62974;49.460;10.892;2023-07-31T12:18:07;97416.59;;;21.05;60.51
73085;BME280;62974;49.460;10.892;2023-07-31T12:20:39;97407.84;;;21.24;60.07
73085;BME280;62974;49.460;10.892;2023-07-31T12:23:14;97398.97;;;21.52;59.22
73085;BME280;62974;49.460;10.892;2023-07-31T12:25:42;97401.22;;;21.40;59.89
73085;BME280;62974;49.460;10.892;2023-07-31T12:28:10;97402.94;;;21.26;59.61
73085;BME280;62974;49.460;10.892;2023-07-31T12:30:41;97398.28;;;21.21;59.76
73085;BME280;62974;49.460;10.892;2023-07-31T12:33:13;97403.75;;;21.16;59.07
73085;BME280;62974;49.460;10.892;2023-07-31T12:35:44;97393.66;;;21.22;60.77
73085;BME280;62974;49.460;10.892;2023-07-31T12:38:13;97386.81;;;21.19;59.83
73085;BME280;62974;49.460;10.892;2023-07-31T12:40:42;97386.28;;;21.07;59.38
73085;BME280;62974;49.460;10.892;2023-07-31T12:43:09;97378.34;;;21.21;58.31
73085;BME280;62974;49.460;10.892;2023-07-31T12:45:37;97382.16;;;21.20;58.77
73085;BME280;62974;49.460;10.892;2023-07-31T12:48:07;97371.19;;;21.35;58.37
73085;BME280;62974;49.460;10.892;2023-07-31T12:50:34;97356.19;;;21.32;58.75
73085;BME280;62974;49.460;10.892;2023-07-31T12:53:02;97356.75;;;21.24;59.41
73085;BME280;62974;49.460;10.892;2023-07-31T12:55:32;97369.63;;;21.08;59.15
73085;BME280;62974;49.460;10.892;2023-07-31T12:58:01;97354.88;;;21.09;58.65